Time;durP1;ratioP1;P1;durP2;ratioP2;P2;SDS_P1;SDS_P2;PMS_P1;PMS_P2;Temp;Humidity;BMP_temperature;BMP_pressure;BME280_temperature;BME280_humidity;BME280_pressure;Samples;Min_cycle;Max_cycle;Signal;HPM_P1;HPM_P2
2021/06/24 00:00:15;;;;;;;18.55;4.60;;;16.80;99.90;;;;;;4230580;27;20056;-72
2021/06/24 00:02:17;;;;;;;19.00;4.50;;;16.80;99.90;;;;;;4249866;27;20438;-72
2021/06/24 00:04:22;;;;;;;12.20;4.22;;;17.00;99.90;;;;;;4252393;27;20063;-73
2021/06/24 00:06:25;;;;;;;12.63;4.00;;;16.80;99.90;;;;;;4250956;27;20065;-71
2021/06/24 00:08:28;;;;;;;15.57;4.03;;;16.80;99.90;;;;;;4249397;27;20047;-71
2021/06/24 00:10:31;;;;;;;23.98;5.15;;;16.80;99.90;;;;;;4248713;27;20522;-72
2021/06/24 00:12:34;;;;;;;17.33;4.32;;;16.90;99.90;;;;;;4250066;27;20051;-70
2021/06/24 00:14:37;;;;;;;13.77;3.80;;;16.80;99.90;;;;;;4248901;27;20063;-71
2021/06/24 00:16:40;;;;;;;11.40;3.67;;;16.90;99.90;;;;;;4247146;27;20128;-70
2021/06/24 00:18:43;;;;;;;8.70;3.45;;;16.90;99.90;;;;;;4246146;27;20055;-70
2021/06/24 00:20:48;;;;;;;14.48;3.60;;;16.90;99.90;;;;;;4246274;27;20081;-71
2021/06/24 00:22:51;;;;;;;15.95;4.70;;;16.90;99.90;;;;;;4246312;27;20523;-70
2021/06/24 00:24:54;;;;;;;17.88;3.95;;;17.10;99.90;;;;;;4246464;27;20423;-70
2021/06/24 00:26:57;;;;;;;18.38;3.70;;;17.00;99.90;;;;;;4247353;27;20431;-71
2021/06/24 00:29:00;;;;;;;16.13;3.78;;;16.90;99.90;;;;;;4248247;27;20051;-71
2021/06/24 00:31:04;;;;;;;19.23;4.32;;;17.00;99.90;;;;;;4249316;27;20631;-70
2021/06/24 00:33:07;;;;;;;19.23;4.13;;;17.00;99.90;;;;;;4230144;28;20408;-70
2021/06/24 00:35:12;;;;;;;12.50;4.10;;;17.00;99.90;;;;;;4246377;27;20047;-70
2021/06/24 00:37:16;;;;;;;;;;;17.00;99.90;;;;;;4246574;27;20380;-70
2021/06/24 00:39:19;;;;;;;17.25;4.35;;;16.90;99.90;;;;;;4245697;27;19919;-70
2021/06/24 00:41:22;;;;;;;19.98;4.18;;;16.80;99.90;;;;;;4245701;27;20496;-70
2021/06/24 00:43:26;;;;;;;27.27;4.35;;;16.70;99.90;;;;;;4246367;27;20077;-70
2021/06/24 00:45:29;;;;;;;12.55;4.40;;;16.70;99.90;;;;;;4246315;27;20051;-70
2021/06/24 00:47:32;;;;;;;14.85;4.18;;;16.70;99.90;;;;;;4245643;27;20054;-70
2021/06/24 00:49:35;;;;;;;18.35;4.32;;;16.80;99.90;;;;;;4246245;28;20059;-70
2021/06/24 00:51:38;;;;;;;16.02;4.25;;;16.80;99.90;;;;;;4246370;28;20047;-70
2021/06/24 00:53:42;;;;;;;14.93;4.03;;;16.80;99.90;;;;;;4246620;28;20051;-71
2021/06/24 00:55:46;;;;;;;11.27;3.70;;;16.80;99.90;;;;;;4246545;28;20055;-70
2021/06/24 00:57:49;;;;;;;12.20;4.53;;;16.80;99.90;;;;;;4247257;28;20059;-70
2021/06/24 00:59:52;;;;;;;12.63;3.63;;;16.90;99.90;;;;;;4253691;28;20419;-71
2021/06/24 01:01:55;;;;;;;21.35;4.28;;;16.80;99.90;;;;;;4257055;28;20090;-70
2021/06/24 01:03:59;;;;;;;17.33;4.03;;;16.80;99.90;;;;;;4255846;28;20051;-71
2021/06/24 01:06:02;;;;;;;18.92;4.28;;;16.80;99.90;;;;;;4257004;28;20051;-73
2021/06/24 01:08:06;;;;;;;21.02;5.00;;;16.80;99.90;;;;;;4256009;28;20051;-70
2021/06/24 01:10:11;;;;;;;12.98;3.97;;;16.90;99.90;;;;;;4251210;28;20587;-70
2021/06/24 01:12:14;;;;;;;;;;;17.00;99.90;;;;;;4253834;28;20100;-70
2021/06/24 01:14:17;;;;;;;17.83;4.13;;;17.10;99.90;;;;;;4228659;28;20055;-70
2021/06/24 01:16:20;;;;;;;13.23;3.95;;;17.20;99.90;;;;;;4245556;28;20137;-70
2021/06/24 01:18:25;;;;;;;10.98;3.58;;;17.20;99.90;;;;;;4245995;28;20051;-70
2021/06/24 01:20:34;;;;;;;13.68;4.10;;;17.20;99.90;;;;;;4246385;28;20047;-71
2021/06/24 01:22:37;;;;;;;13.60;4.00;;;17.30;99.90;;;;;;4246289;28;20052;-71
2021/06/24 01:24:42;;;;;;;17.38;4.00;;;17.40;99.90;;;;;;4245868;28;20055;-70
2021/06/24 01:26:45;;;;;;;17.65;3.92;;;17.40;99.90;;;;;;4245675;28;20574;-70
2021/06/24 01:28:48;;;;;;;15.75;3.70;;;17.30;99.90;;;;;;4245911;27;20055;-70
2021/06/24 01:30:51;;;;;;;16.15;3.70;;;17.40;99.90;;;;;;4249183;27;20552;-70
2021/06/24 01:32:55;;;;;;;12.10;3.70;;;17.40;99.90;;;;;;4249047;27;20115;-70
2021/06/24 01:34:58;;;;;;;10.27;4.03;;;17.40;99.90;;;;;;4248585;27;20051;-71
2021/06/24 01:37:01;;;;;;;14.57;3.88;;;17.30;99.90;;;;;;4248961;27;20584;-70
2021/06/24 01:39:06;;;;;;;12.60;3.97;;;17.30;99.90;;;;;;4248623;27;20462;-70
2021/06/24 01:41:13;;;;;;;12.40;4.15;;;17.30;99.90;;;;;;4248495;27;20055;-70
2021/06/24 01:43:16;;;;;;;15.27;3.80;;;17.10;99.90;;;;;;4249061;27;20051;-71
2021/06/24 01:45:19;;;;;;;14.80;3.90;;;17.30;99.90;;;;;;4249028;27;20047;-70
2021/06/24 01:47:22;;;;;;;10.70;3.80;;;17.30;99.90;;;;;;4248447;27;20058;-71
2021/06/24 01:49:25;;;;;;;13.20;3.80;;;17.40;99.90;;;;;;4238390;27;20495;-71
2021/06/24 01:51:28;;;;;;;21.38;4.05;;;17.30;99.90;;;;;;4248370;27;20051;-71
2021/06/24 01:53:31;;;;;;;16.60;4.05;;;17.20;99.90;;;;;;4248262;27;20058;-70
2021/06/24 01:55:36;;;;;;;16.13;4.05;;;17.40;99.90;;;;;;4248281;27;20052;-70
2021/06/24 01:57:40;;;;;;;12.40;4.32;;;17.40;99.90;;;;;;4248427;27;20059;-70
2021/06/24 01:59:45;;;;;;;17.55;4.00;;;17.40;99.90;;;;;;4248396;27;20058;-71
2021/06/24 02:01:48;;;;;;;13.73;3.95;;;17.50;99.90;;;;;;4248165;27;20490;-71
2021/06/24 02:03:53;;;;;;;13.18;4.13;;;17.30;99.90;;;;;;4248586;27;20059;-70
2021/06/24 02:05:57;;;;;;;17.58;3.90;;;17.30;99.90;;;;;;4248638;27;20051;-71
2021/06/24 02:08:00;;;;;;;16.43;4.53;;;17.20;99.90;;;;;;4248486;27;20052;-71
2021/06/24 02:10:04;;;;;;;10.65;3.83;;;16.90;99.90;;;;;;4248971;27;20055;-72
2021/06/24 02:12:08;;;;;;;19.38;4.53;;;16.90;99.90;;;;;;4248055;27;20179;-70
2021/06/24 02:14:12;;;;;;;10.63;3.95;;;17.00;99.90;;;;;;4248295;27;20058;-71
2021/06/24 02:16:15;;;;;;;11.57;3.85;;;16.90;99.90;;;;;;4249648;27;20063;-71
2021/06/24 02:18:18;;;;;;;13.13;3.50;;;17.10;99.90;;;;;;4248726;27;20447;-70
2021/06/24 02:20:21;;;;;;;13.52;3.97;;;17.20;99.90;;;;;;4249342;27;20051;-71
2021/06/24 02:22:25;;;;;;;12.38;4.28;;;17.20;99.90;;;;;;4230722;28;20111;-70
2021/06/24 02:24:28;;;;;;;16.08;3.67;;;17.20;99.90;;;;;;4248163;27;20081;-70
2021/06/24 02:26:31;;;;;;;11.02;3.20;;;17.30;99.90;;;;;;4248053;27;20047;-70
2021/06/24 02:28:34;;;;;;;15.32;3.35;;;17.50;99.90;;;;;;4248360;27;20469;-70
2021/06/24 02:30:39;;;;;;;13.48;3.60;;;17.70;99.90;;;;;;4247645;27;20567;-70
2021/06/24 02:32:42;;;;;;;13.88;3.78;;;17.80;99.90;;;;;;4247716;27;20051;-70
2021/06/24 02:34:46;;;;;;;10.50;3.05;;;17.80;99.90;;;;;;4247822;27;20047;-70
2021/06/24 02:36:49;;;;;;;11.48;3.33;;;17.70;99.90;;;;;;4247667;27;20055;-70
2021/06/24 02:38:52;;;;;;;13.20;3.90;;;17.80;99.90;;;;;;4247765;27;20126;-71
2021/06/24 02:40:55;;;;;;;12.18;3.53;;;17.80;99.90;;;;;;4247548;27;20402;-70
2021/06/24 02:42:59;;;;;;;18.67;3.90;;;17.80;99.90;;;;;;4247810;27;20055;-70
2021/06/24 02:45:02;;;;;;;18.88;4.28;;;17.80;99.90;;;;;;4247714;27;20393;-71
2021/06/24 02:47:06;;;;;;;11.25;3.72;;;17.70;99.90;;;;;;4247822;27;20055;-71
2021/06/24 02:49:10;;;;;;;6.82;3.33;;;17.60;99.90;;;;;;4247531;27;20051;-70
2021/06/24 02:51:13;;;;;;;16.30;3.50;;;17.70;99.90;;;;;;4247942;27;20096;-71
2021/06/24 02:53:16;;;;;;;14.90;3.83;;;17.60;99.90;;;;;;4229816;28;20052;-71
2021/06/24 02:55:19;;;;;;;13.02;3.58;;;17.60;99.90;;;;;;4247988;27;20416;-70
2021/06/24 02:57:22;;;;;;;17.23;3.30;;;17.70;99.90;;;;;;4248271;27;20059;-70
2021/06/24 02:59:25;;;;;;;11.55;3.72;;;17.80;99.90;;;;;;4230700;28;20445;-70
2021/06/24 03:01:28;;;;;;;12.50;4.07;;;17.70;99.90;;;;;;4248507;27;20054;-70
2021/06/24 03:03:33;;;;;;;17.40;3.60;;;17.70;99.90;;;;;;4248256;27;20047;-70
2021/06/24 03:05:36;;;;;;;13.52;3.65;;;17.80;99.90;;;;;;4247242;27;20070;-75
2021/06/24 03:07:39;;;;;;;12.30;3.25;;;17.90;99.90;;;;;;4247952;27;20082;-71
2021/06/24 03:09:42;;;;;;;13.27;3.70;;;17.90;99.90;;;;;;4247708;27;20051;-71
2021/06/24 03:11:46;;;;;;;10.95;3.65;;;18.00;99.90;;;;;;4247516;27;20186;-70
2021/06/24 03:13:50;;;;;;;13.03;3.93;;;17.80;99.90;;;;;;4247209;27;20047;-72
2021/06/24 03:15:53;;;;;;;12.18;3.50;;;17.90;99.90;;;;;;4246777;27;20991;-70
2021/06/24 03:17:56;;;;;;;18.20;3.22;;;17.90;99.90;;;;;;4236749;27;20452;-71
2021/06/24 03:20:00;;;;;;;12.13;3.40;;;17.90;99.90;;;;;;4230114;28;20411;-71
2021/06/24 03:22:03;;;;;;;11.95;3.33;;;17.90;99.90;;;;;;4230242;28;20063;-70
2021/06/24 03:24:07;;;;;;;17.52;3.40;;;17.80;99.90;;;;;;4212154;28;20055;-70
2021/06/24 03:26:10;;;;;;;12.25;3.20;;;17.80;99.90;;;;;;4229865;28;20055;-70
2021/06/24 03:28:13;;;;;;;14.10;3.83;;;17.80;99.90;;;;;;4229459;28;20431;-70
2021/06/24 03:30:17;;;;;;;10.80;3.78;;;17.90;99.90;;;;;;4229585;28;20055;-71
2021/06/24 03:32:20;;;;;;;18.85;3.15;;;17.90;99.90;;;;;;4229695;28;20056;-71
2021/06/24 03:34:23;;;;;;;12.32;3.30;;;17.70;99.90;;;;;;4229769;28;20120;-70
2021/06/24 03:36:28;;;;;;;17.15;3.97;;;17.60;99.90;;;;;;4229826;28;20492;-70
2021/06/24 03:38:31;;;;;;;9.38;3.38;;;17.30;99.90;;;;;;4229838;28;20097;-70
2021/06/24 03:40:34;;;;;;;13.85;3.25;;;17.50;99.90;;;;;;4229414;28;20052;-70
2021/06/24 03:42:37;;;;;;;13.57;3.55;;;17.40;99.90;;;;;;4229785;28;20047;-70
2021/06/24 03:44:40;;;;;;;14.10;3.63;;;17.40;99.90;;;;;;4229720;28;20487;-70
2021/06/24 03:46:44;;;;;;;15.13;4.50;;;17.50;99.90;;;;;;4229653;28;20461;-70
2021/06/24 03:48:47;;;;;;;9.77;3.70;;;17.40;99.90;;;;;;4243716;27;20643;-70
2021/06/24 03:50:50;;;;;;;10.68;3.38;;;17.50;99.90;;;;;;4246366;27;20147;-70
2021/06/24 03:52:54;;;;;;;11.95;3.30;;;17.60;99.90;;;;;;4245399;27;20399;-71
2021/06/24 03:54:57;;;;;;;12.27;3.20;;;17.70;99.90;;;;;;4246565;27;20048;-70
2021/06/24 03:57:00;;;;;;;8.68;3.38;;;17.80;99.90;;;;;;4246771;27;20461;-70
2021/06/24 03:59:03;;;;;;;18.60;3.78;;;17.70;99.90;;;;;;4246347;27;20155;-70
2021/06/24 04:01:07;;;;;;;10.60;3.10;;;17.70;99.90;;;;;;4246437;27;20074;-70
2021/06/24 04:03:11;;;;;;;16.50;4.35;;;17.70;99.90;;;;;;4246400;27;20482;-71
2021/06/24 04:05:14;;;;;;;13.25;3.25;;;17.60;99.90;;;;;;4246714;27;20453;-71
2021/06/24 04:07:19;;;;;;;15.40;4.03;;;17.70;99.90;;;;;;4246501;27;20469;-71
2021/06/24 04:09:23;;;;;;;12.27;3.60;;;17.50;99.90;;;;;;4246189;27;20059;-71
2021/06/24 04:11:26;;;;;;;12.50;3.72;;;17.60;99.90;;;;;;4246480;27;20059;-71
2021/06/24 04:13:29;;;;;;;11.93;3.15;;;17.50;99.90;;;;;;4249094;27;20058;-70
2021/06/24 04:15:33;;;;;;;13.85;3.80;;;17.40;99.90;;;;;;4247792;27;20054;-71
2021/06/24 04:17:36;;;;;;;15.57;4.18;;;17.20;99.90;;;;;;4248544;27;20109;-71
2021/06/24 04:19:42;;;;;;;11.32;3.50;;;17.20;99.90;;;;;;4248043;27;20126;-71
2021/06/24 04:21:45;;;;;;;17.52;3.75;;;17.10;99.90;;;;;;4249490;27;20058;-70
2021/06/24 04:23:48;;;;;;;15.15;3.45;;;17.30;99.90;;;;;;4251774;27;20048;-71
2021/06/24 04:25:53;;;;;;;12.13;4.13;;;17.30;99.90;;;;;;4252495;27;20503;-72
2021/06/24 04:27:58;;;;;;;13.38;3.95;;;17.30;99.90;;;;;;4255215;27;20051;-71
2021/06/24 04:30:01;;;;;;;7.75;3.50;;;17.30;99.90;;;;;;4253899;27;20054;-71
2021/06/24 04:32:05;;;;;;;11.15;3.85;;;17.50;99.90;;;;;;4251139;27;20058;-70
2021/06/24 04:34:08;;;;;;;14.90;4.03;;;17.60;99.90;;;;;;4247378;27;20441;-71
2021/06/24 04:36:11;;;;;;;14.40;3.88;;;17.60;99.90;;;;;;4247025;27;20415;-71
2021/06/24 04:38:15;;;;;;;14.93;4.00;;;17.50;99.90;;;;;;4246324;27;20051;-71
2021/06/24 04:40:18;;;;;;;12.68;3.47;;;17.30;99.90;;;;;;4247872;27;20119;-71
2021/06/24 04:42:22;;;;;;;16.17;4.25;;;17.40;99.90;;;;;;4247420;27;20055;-70
2021/06/24 04:44:25;;;;;;;14.50;4.18;;;17.40;99.90;;;;;;4247498;27;20120;-70
2021/06/24 04:46:29;;;;;;;12.80;3.63;;;17.40;99.90;;;;;;4247718;27;20055;-71
2021/06/24 04:48:32;;;;;;;25.08;4.05;;;17.30;99.90;;;;;;4228104;28;20101;-70
2021/06/24 04:50:36;;;;;;;14.10;3.60;;;17.40;99.90;;;;;;4247865;27;20055;-72
2021/06/24 04:52:39;;;;;;;15.65;3.90;;;17.40;99.90;;;;;;4247105;28;20051;-70
2021/06/24 04:54:43;;;;;;;18.88;3.92;;;17.20;99.90;;;;;;4245993;28;20597;-71
2021/06/24 04:56:46;;;;;;;17.20;4.28;;;17.30;99.90;;;;;;4245985;28;20082;-70
2021/06/24 04:58:50;;;;;;;13.98;3.60;;;17.30;99.90;;;;;;4245894;28;20103;-70
2021/06/24 05:00:53;;;;;;;12.73;4.32;;;17.50;99.90;;;;;;4245647;28;20059;-70
2021/06/24 05:02:56;;;;;;;17.98;4.15;;;17.50;99.90;;;;;;4245462;27;20055;-70
2021/06/24 05:05:02;;;;;;;16.48;4.78;;;17.50;99.90;;;;;;4247838;27;20051;-70
2021/06/24 05:07:10;;;;;;;25.50;5.55;;;17.40;99.90;;;;;;4249393;27;20055;-71
2021/06/24 05:09:13;;;;;;;19.67;5.63;;;17.50;99.90;;;;;;4250289;27;20552;-70
2021/06/24 05:11:16;;;;;;;18.95;6.13;;;17.50;99.90;;;;;;4250145;27;20054;-70
2021/06/24 05:13:19;;;;;;;19.25;5.00;;;17.30;99.90;;;;;;4250530;27;20055;-70
2021/06/24 05:15:23;;;;;;;14.02;4.20;;;17.30;99.90;;;;;;4250470;27;20055;-70
2021/06/24 05:17:28;;;;;;;11.50;4.20;;;17.20;99.90;;;;;;4250219;27;20054;-70
2021/06/24 05:19:33;;;;;;;15.45;4.05;;;17.40;99.90;;;;;;4250788;27;20051;-71
2021/06/24 05:21:36;;;;;;;21.30;4.97;;;17.50;99.90;;;;;;4251159;27;20058;-70
2021/06/24 05:23:42;;;;;;;21.73;4.50;;;17.60;99.90;;;;;;4253440;27;20403;-70
2021/06/24 05:25:46;;;;;;;18.30;4.15;;;17.50;99.90;;;;;;4252360;27;20059;-71
2021/06/24 05:27:49;;;;;;;17.88;4.70;;;17.40;99.90;;;;;;4251982;27;20043;-70
2021/06/24 05:29:52;;;;;;;12.77;4.03;;;17.40;99.90;;;;;;4250565;27;20055;-71
2021/06/24 05:31:56;;;;;;;8.60;3.97;;;17.30;99.90;;;;;;4252818;27;20051;-70
2021/06/24 05:33:59;;;;;;;15.63;3.88;;;17.30;99.90;;;;;;4252278;27;20055;-73
2021/06/24 05:36:02;;;;;;;17.98;4.47;;;17.40;99.90;;;;;;4254965;27;20077;-71
2021/06/24 05:38:10;;;;;;;12.15;3.80;;;17.50;99.90;;;;;;4253715;27;20384;-71
2021/06/24 05:40:14;;;;;;;15.27;3.95;;;17.40;99.90;;;;;;4253097;27;20052;-70
2021/06/24 05:42:17;;;;;;;21.38;4.88;;;17.40;99.90;;;;;;4251829;27;20092;-72
2021/06/24 05:44:20;;;;;;;13.20;4.20;;;17.30;99.90;;;;;;4250590;27;20096;-70
2021/06/24 05:46:25;;;;;;;15.77;4.65;;;17.20;99.90;;;;;;4250707;27;20112;-70
2021/06/24 05:48:32;;;;;;;17.27;4.85;;;17.30;99.90;;;;;;4248914;27;20087;-71
2021/06/24 05:50:36;;;;;;;18.58;4.43;;;17.30;99.90;;;;;;4232850;28;20055;-70
2021/06/24 05:52:39;;;;;;;15.95;4.47;;;17.40;99.90;;;;;;4233083;28;20055;-70
2021/06/24 05:54:42;;;;;;;11.82;4.20;;;17.40;99.90;;;;;;4235751;28;20063;-70
2021/06/24 05:56:45;;;;;;;19.48;4.05;;;17.50;99.90;;;;;;4235325;28;20062;-70
2021/06/24 05:58:48;;;;;;;12.27;3.72;;;17.60;99.90;;;;;;4233051;28;20056;-74
2021/06/24 06:00:53;;;;;;;16.08;4.30;;;17.50;99.90;;;;;;4232077;28;20048;-71
2021/06/24 06:02:57;;;;;;;30.40;4.40;;;17.50;99.90;;;;;;4214204;28;20095;-70
2021/06/24 06:05:01;;;;;;;14.93;4.40;;;17.40;99.90;;;;;;4231565;28;20602;-70
2021/06/24 06:07:04;;;;;;;19.02;4.70;;;17.20;99.90;;;;;;4231832;28;20109;-71
2021/06/24 06:09:07;;;;;;;15.13;4.30;;;17.30;99.90;;;;;;4231746;28;20112;-71
2021/06/24 06:11:10;;;;;;;15.88;4.07;;;17.30;99.90;;;;;;4231538;28;20063;-71
2021/06/24 06:13:14;;;;;;;16.42;4.20;;;17.20;99.90;;;;;;4232066;28;20055;-70
2021/06/24 06:15:17;;;;;;;11.27;4.10;;;17.40;99.90;;;;;;4230977;28;20059;-70
2021/06/24 06:17:20;;;;;;;17.52;5.28;;;17.50;99.90;;;;;;4236966;27;20058;-70
2021/06/24 06:19:23;;;;;;;11.95;4.68;;;17.50;99.90;;;;;;4248972;27;20051;-73
2021/06/24 06:21:29;;;;;;;18.42;5.13;;;17.20;99.90;;;;;;4248868;27;20088;-73
2021/06/24 06:23:33;;;;;;;16.35;4.65;;;17.30;99.90;;;;;;4248265;27;20051;-73
2021/06/24 06:25:36;;;;;;;16.73;4.60;;;17.30;99.90;;;;;;4248782;27;20055;-73
2021/06/24 06:27:39;;;;;;;19.02;4.78;;;17.40;99.90;;;;;;4249245;27;20074;-73
2021/06/24 06:29:42;;;;;;;21.67;5.15;;;17.40;99.90;;;;;;4250837;27;20127;-70
2021/06/24 06:31:45;;;;;;;13.00;4.45;;;17.40;99.90;;;;;;4250381;27;20055;-71
2021/06/24 06:33:48;;;;;;;16.05;4.15;;;17.20;99.90;;;;;;4247963;27;20051;-70
2021/06/24 06:35:52;;;;;;;11.55;4.38;;;17.30;99.90;;;;;;4248221;27;20077;-70
2021/06/24 06:37:57;;;;;;;15.75;4.10;;;17.20;99.90;;;;;;4248651;27;20062;-70
2021/06/24 06:39:59;;;;;;;13.52;4.30;;;17.30;99.90;;;;;;4248133;27;20491;-71
2021/06/24 06:42:03;;;;;;;24.00;5.20;;;17.20;99.90;;;;;;4251321;27;20051;-72
2021/06/24 06:44:06;;;;;;;17.13;4.20;;;17.20;99.90;;;;;;4257649;27;20126;-71
2021/06/24 06:46:09;;;;;;;15.68;3.90;;;17.30;99.90;;;;;;4259796;27;20061;-72
2021/06/24 06:48:13;;;;;;;14.90;4.47;;;17.40;99.90;;;;;;4257166;27;20043;-70
2021/06/24 06:50:16;;;;;;;15.55;4.18;;;17.40;99.90;;;;;;4260443;27;20055;-73
2021/06/24 06:52:19;;;;;;;12.15;3.95;;;17.40;99.90;;;;;;4261224;27;20055;-71
2021/06/24 06:54:24;;;;;;;14.98;4.28;;;17.40;99.90;;;;;;4258923;27;20163;-71
2021/06/24 06:56:27;;;;;;;14.75;3.60;;;17.50;99.90;;;;;;4253984;27;20081;-70
2021/06/24 06:58:30;;;;;;;16.20;4.35;;;17.40;99.90;;;;;;4252697;27;20051;-71
2021/06/24 07:00:34;;;;;;;11.60;3.90;;;17.40;99.90;;;;;;4249983;27;20051;-70
2021/06/24 07:02:38;;;;;;;19.60;4.25;;;17.50;99.90;;;;;;4250088;27;20047;-70
2021/06/24 07:04:41;;;;;;;10.85;3.83;;;17.60;99.90;;;;;;4249668;27;20052;-72
2021/06/24 07:06:44;;;;;;;15.65;4.45;;;17.50;99.90;;;;;;4247958;27;20139;-73
2021/06/24 07:08:47;;;;;;;16.48;4.07;;;17.30;99.90;;;;;;4248234;27;20052;-73
2021/06/24 07:10:51;;;;;;;16.88;4.03;;;17.30;99.90;;;;;;4250380;27;20058;-70
2021/06/24 07:12:54;;;;;;;25.65;4.50;;;17.40;99.90;;;;;;4250258;27;20126;-70
2021/06/24 07:14:58;;;;;;;16.10;4.10;;;17.40;99.90;;;;;;4248163;27;20055;-70
2021/06/24 07:17:01;;;;;;;14.95;3.85;;;17.50;99.90;;;;;;4247421;27;20051;-70
2021/06/24 07:19:04;;;;;;;12.82;3.80;;;17.50;99.90;;;;;;4247121;27;20646;-70
2021/06/24 07:21:07;;;;;;;18.15;4.40;;;17.40;99.90;;;;;;4247688;27;20084;-71
2021/06/24 07:23:10;;;;;;;19.27;4.85;;;17.40;99.90;;;;;;4247471;27;20107;-70
2021/06/24 07:25:18;;;;;;;21.30;4.82;;;17.50;99.90;;;;;;4246732;27;20047;-69
2021/06/24 07:27:23;;;;;;;17.02;6.20;;;17.50;99.90;;;;;;4234304;27;20488;-72
2021/06/24 07:29:28;;;;;;;10.10;4.20;;;17.40;99.90;;;;;;4245261;27;20108;-72
2021/06/24 07:31:34;;;;;;;12.10;4.80;;;17.40;99.90;;;;;;4247013;27;20051;-72
2021/06/24 07:33:38;;;;;;;15.43;5.60;;;17.50;99.90;;;;;;4212930;28;20056;-69
2021/06/24 07:35:41;;;;;;;18.42;5.07;;;17.50;99.90;;;;;;4230441;28;20079;-69
2021/06/24 07:37:44;;;;;;;20.65;5.00;;;17.50;99.90;;;;;;4230176;28;20048;-70
2021/06/24 07:39:48;;;;;;;15.35;5.13;;;17.60;99.90;;;;;;4230829;28;20052;-69
2021/06/24 07:41:51;;;;;;;20.40;5.28;;;17.60;99.90;;;;;;4232899;28;20055;-77
2021/06/24 07:43:55;;;;;;;12.20;3.63;;;17.50;99.90;;;;;;4213901;28;20052;-73
2021/06/24 07:45:59;;;;;;;13.65;4.50;;;17.60;99.90;;;;;;4247616;27;20059;-70
2021/06/24 07:48:06;;;;;;;24.55;5.68;;;17.60;99.90;;;;;;4247828;27;20047;-73
2021/06/24 07:50:09;;;;;;;11.00;4.47;;;17.70;99.90;;;;;;4247032;27;20047;-72
2021/06/24 07:52:13;;;;;;;12.18;4.05;;;17.70;99.90;;;;;;4246822;27;20445;-71
2021/06/24 07:54:16;;;;;;;11.43;3.60;;;17.80;99.90;;;;;;4246287;27;20047;-69
2021/06/24 07:56:19;;;;;;;13.98;4.03;;;17.70;99.90;;;;;;4245307;27;20523;-70
2021/06/24 07:58:22;;;;;;;12.05;3.95;;;17.70;99.90;;;;;;4246135;27;20077;-72
2021/06/24 08:00:27;;;;;;;14.90;3.72;;;17.90;99.90;;;;;;4246180;27;20043;-69
2021/06/24 08:02:33;;;;;;;19.83;4.45;;;18.00;99.90;;;;;;4246742;27;20063;-69
2021/06/24 08:04:36;;;;;;;14.32;3.90;;;17.60;99.90;;;;;;4249356;27;20055;-70
2021/06/24 08:06:39;;;;;;;12.70;4.55;;;17.40;99.90;;;;;;4251065;27;20496;-71
2021/06/24 08:08:42;;;;;;;13.73;4.18;;;17.50;99.90;;;;;;4251537;27;20564;-73
2021/06/24 08:10:45;;;;;;;13.18;4.32;;;17.40;99.90;;;;;;4251071;27;20055;-70
2021/06/24 08:12:49;;;;;;;12.77;3.90;;;17.60;99.90;;;;;;4252835;27;20043;-70
2021/06/24 08:14:52;;;;;;;11.85;3.63;;;17.90;99.90;;;;;;4251176;27;20043;-70
2021/06/24 08:16:59;;;;;;;16.35;4.00;;;18.00;99.90;;;;;;4249055;27;20075;-70
2021/06/24 08:19:03;;;;;;;12.88;3.70;;;18.10;99.90;;;;;;4229045;28;20522;-70
2021/06/24 08:21:06;;;;;;;15.52;3.70;;;18.20;99.90;;;;;;4246552;27;20062;-70
2021/06/24 08:23:09;;;;;;;14.52;3.58;;;18.20;99.90;;;;;;4246619;27;20051;-69
2021/06/24 08:25:14;;;;;;;14.30;3.95;;;18.30;99.90;;;;;;4246757;27;20108;-70
2021/06/24 08:27:17;;;;;;;18.17;4.40;;;18.20;99.90;;;;;;4246750;27;20096;-70
2021/06/24 08:29:21;;;;;;;11.73;3.65;;;18.30;99.90;;;;;;4246741;27;20714;-70
2021/06/24 08:31:24;;;;;;;13.27;4.50;;;18.50;99.90;;;;;;4246723;27;20063;-71
2021/06/24 08:33:29;;;;;;;12.43;3.60;;;18.50;99.90;;;;;;4247665;27;20058;-70
2021/06/24 08:35:32;;;;;;;13.80;3.90;;;18.40;99.90;;;;;;4247404;27;20112;-70
2021/06/24 08:37:35;;;;;;;15.38;3.85;;;18.40;99.90;;;;;;4247170;27;20111;-72
2021/06/24 08:39:38;;;;;;;14.80;3.67;;;18.50;99.90;;;;;;4246258;27;20047;-72
2021/06/24 08:41:41;;;;;;;24.73;5.13;;;18.50;99.90;;;;;;4246373;27;20051;-70
2021/06/24 08:43:45;;;;;;;44.23;5.03;;;18.30;99.90;;;;;;4246242;27;20051;-72
2021/06/24 08:45:49;;;;;;;23.48;4.60;;;18.10;99.90;;;;;;4246501;27;20466;-72
2021/06/24 08:47:53;;;;;;;14.73;4.53;;;18.10;99.90;;;;;;4247100;27;20051;-72
2021/06/24 08:50:00;;;;;;;20.77;5.03;;;18.10;99.90;;;;;;4246872;27;20047;-72
2021/06/24 08:52:04;;;;;;;26.10;4.85;;;18.00;99.90;;;;;;4246327;27;20051;-69
2021/06/24 08:54:08;;;;;;;15.25;3.92;;;18.10;99.90;;;;;;4246611;28;20419;-71
2021/06/24 08:56:16;;;;;;;10.05;3.60;;;18.30;99.90;;;;;;4229058;28;20047;-72
2021/06/24 08:58:21;;;;;;;17.17;4.72;;;18.30;99.90;;;;;;4228414;28;20533;-72
2021/06/24 09:00:24;;;;;;;21.92;5.30;;;18.40;99.90;;;;;;4246170;28;20104;-72
2021/06/24 09:02:39;;;;;;;19.60;4.18;;;18.40;99.90;;;;;;4246417;28;20472;-73
2021/06/24 09:04:46;;;;;;;13.43;4.10;;;18.30;99.70;;;;;;4246423;28;20603;-73
2021/06/24 09:06:51;;;;;;;27.35;4.30;;;18.30;99.80;;;;;;4246615;28;20055;-69
2021/06/24 09:08:57;;;;;;;18.65;3.53;;;18.30;99.90;;;;;;4246539;28;20077;-70
2021/06/24 09:11:21;;;;;;;12.23;4.18;;;18.40;99.90;;;;;;4246149;28;20134;-69
2021/06/24 09:13:26;;;;;;;15.95;3.85;;;18.10;99.90;;;;;;4246452;28;20083;-71
2021/06/24 09:15:35;;;;;;;10.30;3.22;;;18.10;99.90;;;;;;4246236;28;20055;-69
2021/06/24 09:17:40;;;;;;;9.98;3.60;;;18.30;99.90;;;;;;4246585;28;20051;-68
2021/06/24 09:19:43;;;;;;;;;;;18.30;99.90;;;;;;4247237;28;20051;-70
2021/06/24 09:21:56;;;;;;;15.95;3.70;;;18.50;99.90;;;;;;4246347;28;19919;-68
2021/06/24 09:24:00;;;;;;;18.48;3.85;;;18.40;99.90;;;;;;4247208;28;20043;-69
2021/06/24 09:26:08;;;;;;;19.02;3.75;;;18.30;99.90;;;;;;4246695;28;20141;-69
2021/06/24 09:28:12;;;;;;;24.38;4.15;;;18.50;99.90;;;;;;4247338;27;20065;-69
2021/06/24 09:30:16;;;;;;;16.83;4.00;;;18.50;99.90;;;;;;4246834;28;20108;-70
2021/06/24 09:32:30;;;;;;;22.15;4.72;;;18.60;99.90;;;;;;4246353;28;20104;-69
2021/06/24 09:34:33;;;;;;;24.75;4.45;;;18.60;99.90;;;;;;4246188;28;20057;-70
2021/06/24 09:36:38;;;;;;;9.77;3.30;;;18.60;99.90;;;;;;4246660;28;20050;-70
2021/06/24 09:38:42;;;;;;;20.52;3.60;;;18.50;99.50;;;;;;4247813;28;20051;-70
2021/06/24 09:40:47;;;;;;;26.92;3.97;;;18.60;99.30;;;;;;4247181;28;20051;-70
2021/06/24 09:42:50;;;;;;;16.70;4.00;;;18.70;99.90;;;;;;4246106;28;20059;-70
2021/06/24 09:44:53;;;;;;;17.50;4.03;;;18.70;99.70;;;;;;4227613;28;20187;-72
2021/06/24 09:46:56;;;;;;;18.77;3.78;;;18.50;99.60;;;;;;4246039;28;20054;-72
2021/06/24 09:49:00;;;;;;;28.80;4.50;;;18.60;99.50;;;;;;4245860;28;20039;-72
2021/06/24 09:51:08;;;;;;;39.92;5.00;;;18.60;99.80;;;;;;4248280;27;20407;-72
2021/06/24 09:53:13;;;;;;;14.98;3.72;;;18.80;99.00;;;;;;4248907;27;20115;-75
2021/06/24 09:55:19;;;;;;;22.58;3.90;;;18.80;99.60;;;;;;4244212;27;20101;-71
2021/06/24 09:57:25;;;;;;;15.50;3.45;;;18.90;99.00;;;;;;4237728;27;20043;-71
2021/06/24 09:59:46;;;;;;;17.58;3.53;;;19.00;99.70;;;;;;4249533;27;20071;-69
2021/06/24 10:01:50;;;;;;;24.70;4.22;;;19.00;98.30;;;;;;4240108;27;20051;-69
2021/06/24 10:03:56;;;;;;;10.30;3.33;;;19.00;98.30;;;;;;4241127;27;20470;-70
2021/06/24 10:05:59;;;;;;;11.88;3.60;;;19.20;98.60;;;;;;4228725;28;20064;-73
2021/06/24 10:08:03;;;;;;;17.90;4.03;;;19.00;98.30;;;;;;4238825;27;20084;-74
2021/06/24 10:10:08;;;;;;;15.73;3.40;;;19.00;98.80;;;;;;4245724;27;20517;-72
2021/06/24 10:12:14;;;;;;;;;;;19.20;98.50;;;;;;4242604;27;20059;-71
2021/06/24 10:14:19;;;;;;;15.90;3.40;;;19.30;98.30;;;;;;4233111;28;19920;-72
2021/06/24 10:16:26;;;;;;;12.98;3.15;;;18.90;97.40;;;;;;4234763;28;20135;-73
2021/06/24 10:18:31;;;;;;;21.30;3.85;;;19.00;98.10;;;;;;4248942;27;20063;-70
2021/06/24 10:20:37;;;;;;;29.50;4.15;;;19.00;98.40;;;;;;4249655;27;20058;-71
2021/06/24 10:22:41;;;;;;;18.77;3.47;;;19.00;98.00;;;;;;4250241;27;20062;-74
2021/06/24 10:24:51;;;;;;;16.38;3.40;;;19.00;97.90;;;;;;4250896;27;20055;-73
2021/06/24 10:26:57;;;;;;;10.23;3.17;;;19.00;97.80;;;;;;4251066;27;20051;-70
2021/06/24 10:29:16;;;;;;;22.95;3.10;;;19.10;97.40;;;;;;4253452;27;20055;-73
2021/06/24 10:31:35;;;;;;;10.18;3.67;;;19.20;97.70;;;;;;4254755;27;20055;-72
2021/06/24 10:33:54;;;;;;;8.90;3.08;;;19.30;97.20;;;;;;4252951;27;20051;-72
2021/06/24 10:36:12;;;;;;;16.25;3.63;;;19.40;97.30;;;;;;4249749;27;20416;-73
2021/06/24 10:38:17;;;;;;;14.93;3.42;;;19.50;96.60;;;;;;4249096;27;20059;-71